sensor_id;sensor_type;location;lat;lon;timestamp;pressure;altitude;pressure_sealevel;temperature;humidity
39789;BME280;25478;42.626;23.320;2023-03-20T00:00:06;93409.00;;;4.13;71.03
39789;BME280;25478;42.626;23.320;2023-03-20T00:02:35;93399.22;;;4.10;71.20
39789;BME280;25478;42.626;23.320;2023-03-20T00:05:14;93407.69;;;4.07;71.61
39789;BME280;25478;42.626;23.320;2023-03-20T00:07:40;93399.75;;;4.03;71.63
39789;BME280;25478;42.626;23.320;2023-03-20T00:10:07;93385.09;;;3.99;71.92
39789;BME280;25478;42.626;23.320;2023-03-20T00:12:33;93391.19;;;4.03;72.31
39789;BME280;25478;42.626;23.320;2023-03-20T00:14:59;93387.81;;;4.02;72.11
39789;BME280;25478;42.626;23.320;2023-03-20T00:17:27;93395.63;;;4.02;72.39
39789;BME280;25478;42.626;23.320;2023-03-20T00:19:52;93392.59;;;4.00;72.77
39789;BME280;25478;42.626;23.320;2023-03-20T00:22:17;93392.16;;;3.98;72.92
39789;BME280;25478;42.626;23.320;2023-03-20T00:24:43;93389.13;;;3.96;73.03
39789;BME280;25478;42.626;23.320;2023-03-20T00:27:12;93380.44;;;3.92;73.51
39789;BME280;25478;42.626;23.320;2023-03-20T00:29:38;93384.56;;;3.93;73.26
39789;BME280;25478;42.626;23.320;2023-03-20T00:32:10;93366.31;;;3.81;73.33
39789;BME280;25478;42.626;23.320;2023-03-20T00:34:37;93386.28;;;3.89;73.59
39789;BME280;25478;42.626;23.320;2023-03-20T00:37:04;93380.97;;;3.85;73.63
39789;BME280;25478;42.626;23.320;2023-03-20T00:39:30;93380.84;;;3.82;73.82
39789;BME280;25478;42.626;23.320;2023-03-20T00:42:04;93381.94;;;3.81;73.84
39789;BME280;25478;42.626;23.320;2023-03-20T00:44:33;93376.59;;;3.77;74.14
39789;BME280;25478;42.626;23.320;2023-03-20T00:47:02;93378.00;;;3.75;74.31
39789;BME280;25478;42.626;23.320;2023-03-20T00:49:33;93379.44;;;3.72;74.51
39789;BME280;25478;42.626;23.320;2023-03-20T00:52:00;93379.28;;;3.68;74.57
39789;BME280;25478;42.626;23.320;2023-03-20T00:54:26;93376.59;;;3.65;74.77
39789;BME280;25478;42.626;23.320;2023-03-20T00:59:21;93357.78;;;3.47;75.10
39789;BME280;25478;42.626;23.320;2023-03-20T01:01:48;93312.91;;;3.17;75.15
39789;BME280;25478;42.626;23.320;2023-03-20T01:04:15;93367.69;;;3.54;75.52
39789;BME280;25478;42.626;23.320;2023-03-20T01:06:42;93368.31;;;3.51;75.54
39789;BME280;25478;42.626;23.320;2023-03-20T01:09:08;93361.16;;;3.48;75.60
39789;BME280;25478;42.626;23.320;2023-03-20T01:11:35;93355.19;;;3.47;75.78
39789;BME280;25478;42.626;23.320;2023-03-20T01:14:02;93357.97;;;3.42;75.91
39789;BME280;25478;42.626;23.320;2023-03-20T01:16:28;93356.78;;;3.39;76.11
39789;BME280;25478;42.626;23.320;2023-03-20T01:18:53;93352.66;;;3.38;75.99
39789;BME280;25478;42.626;23.320;2023-03-20T01:21:20;93345.19;;;3.37;76.17
39789;BME280;25478;42.626;23.320;2023-03-20T01:23:47;93341.25;;;3.31;76.32
39789;BME280;25478;42.626;23.320;2023-03-20T01:26:35;93351.78;;;3.34;76.38
39789;BME280;25478;42.626;23.320;2023-03-20T01:29:02;93335.50;;;3.25;76.42
39789;BME280;25478;42.626;23.320;2023-03-20T01:31:31;93348.63;;;3.29;76.14
39789;BME280;25478;42.626;23.320;2023-03-20T01:33:56;93354.59;;;3.29;76.36
39789;BME280;25478;42.626;23.320;2023-03-20T01:36:22;93357.19;;;3.29;76.52
39789;BME280;25478;42.626;23.320;2023-03-20T01:38:54;93350.16;;;3.30;76.64
39789;BME280;25478;42.626;23.320;2023-03-20T01:41:22;93343.94;;;3.22;76.79
39789;BME280;25478;42.626;23.320;2023-03-20T01:43:48;93346.66;;;3.26;76.87
39789;BME280;25478;42.626;23.320;2023-03-20T01:46:18;93356.31;;;3.25;76.99
39789;BME280;25478;42.626;23.320;2023-03-20T01:51:20;93350.56;;;3.20;77.01
39789;BME280;25478;42.626;23.320;2023-03-20T01:53:52;93354.22;;;3.19;77.21
39789;BME280;25478;42.626;23.320;2023-03-20T01:56:19;93366.78;;;3.17;77.39
39789;BME280;25478;42.626;23.320;2023-03-20T01:58:52;93361.91;;;3.15;77.61
39789;BME280;25478;42.626;23.320;2023-03-20T02:01:20;93365.91;;;3.13;77.59
39789;BME280;25478;42.626;23.320;2023-03-20T02:03:48;93364.69;;;3.10;77.69
39789;BME280;25478;42.626;23.320;2023-03-20T02:06:14;93341.13;;;2.94;77.96
39789;BME280;25478;42.626;23.320;2023-03-20T02:09:05;93358.94;;;3.04;77.76
39789;BME280;25478;42.626;23.320;2023-03-20T02:11:38;93362.31;;;3.05;78.04
39789;BME280;25478;42.626;23.320;2023-03-20T02:14:05;93352.22;;;3.03;78.34
39789;BME280;25478;42.626;23.320;2023-03-20T02:16:39;93351.34;;;2.99;78.29
39789;BME280;25478;42.626;23.320;2023-03-20T02:19:26;93333.38;;;2.86;78.31
39789;BME280;25478;42.626;23.320;2023-03-20T02:47:07;93351.59;;;2.65;79.21
39789;BME280;25478;42.626;23.320;2023-03-20T02:52:37;93335.13;;;2.61;79.34
39789;BME280;25478;42.626;23.320;2023-03-20T02:55:09;93338.03;;;2.59;79.51
39789;BME280;25478;42.626;23.320;2023-03-20T03:00:23;93332.38;;;2.57;79.51
39789;BME280;25478;42.626;23.320;2023-03-20T03:05:26;93330.28;;;2.50;80.14
39789;BME280;25478;42.626;23.320;2023-03-20T03:07:56;93318.75;;;2.39;80.08
39789;BME280;25478;42.626;23.320;2023-03-20T03:10:33;93338.22;;;2.54;79.78
39789;BME280;25478;42.626;23.320;2023-03-20T03:13:02;93325.16;;;2.42;80.02
39789;BME280;25478;42.626;23.320;2023-03-20T03:15:33;93337.00;;;2.51;80.38
39789;BME280;25478;42.626;23.320;2023-03-20T03:18:01;93336.25;;;2.51;80.13
39789;BME280;25478;42.626;23.320;2023-03-20T03:20:33;93326.38;;;2.44;80.53
39789;BME280;25478;42.626;23.320;2023-03-20T03:23:00;93327.69;;;2.50;80.18
39789;BME280;25478;42.626;23.320;2023-03-20T03:25:29;93336.56;;;2.49;80.17
39789;BME280;25478;42.626;23.320;2023-03-20T03:28:05;93332.13;;;2.50;80.43
39789;BME280;25478;42.626;23.320;2023-03-20T03:30:34;93334.72;;;2.50;79.95
39789;BME280;25478;42.626;23.320;2023-03-20T03:35:36;93333.75;;;2.34;80.24
39789;BME280;25478;42.626;23.320;2023-03-20T03:38:25;93330.97;;;2.39;79.92
39789;BME280;25478;42.626;23.320;2023-03-20T03:44:21;93327.81;;;2.33;79.98
39789;BME280;25478;42.626;23.320;2023-03-20T03:46:57;93336.94;;;2.39;80.03
39789;BME280;25478;42.626;23.320;2023-03-20T03:49:30;93333.75;;;2.34;79.97
39789;BME280;25478;42.626;23.320;2023-03-20T03:52:04;93332.56;;;2.31;79.72
39789;BME280;25478;42.626;23.320;2023-03-20T03:57:25;93334.34;;;2.39;79.87
39789;BME280;25478;42.626;23.320;2023-03-20T03:59:54;93335.44;;;2.38;79.98
39789;BME280;25478;42.626;23.320;2023-03-20T04:02:21;93328.38;;;2.39;80.01
39789;BME280;25478;42.626;23.320;2023-03-20T04:04:50;93323.19;;;2.39;79.97
39789;BME280;25478;42.626;23.320;2023-03-20T04:07:17;93329.47;;;2.38;79.69
39789;BME280;25478;42.626;23.320;2023-03-20T04:09:42;93317.41;;;2.33;79.76
39789;BME280;25478;42.626;23.320;2023-03-20T04:14:54;93323.19;;;2.39;79.67
39789;BME280;25478;42.626;23.320;2023-03-20T04:17:22;93318.75;;;2.39;79.70
39789;BME280;25478;42.626;23.320;2023-03-20T04:19:48;93319.84;;;2.38;79.66
39789;BME280;25478;42.626;23.320;2023-03-20T04:22:13;93316.16;;;2.39;80.46
39789;BME280;25478;42.626;23.320;2023-03-20T04:24:38;93320.91;;;2.37;80.18
39789;BME280;25478;42.626;23.320;2023-03-20T04:27:04;93317.25;;;2.38;80.79
39789;BME280;25478;42.626;23.320;2023-03-20T04:29:29;93315.41;;;2.39;80.61
39789;BME280;25478;42.626;23.320;2023-03-20T04:32:16;93302.03;;;2.28;80.70
39789;BME280;25478;42.626;23.320;2023-03-20T04:35:14;93302.41;;;2.39;80.42
39789;BME280;25478;42.626;23.320;2023-03-20T04:37:48;93312.91;;;2.42;80.55
39789;BME280;25478;42.626;23.320;2023-03-20T04:40:15;93311.22;;;2.46;80.84
39789;BME280;25478;42.626;23.320;2023-03-20T04:42:41;93305.13;;;2.42;80.68
39789;BME280;25478;42.626;23.320;2023-03-20T04:45:08;93317.75;;;2.52;80.67
39789;BME280;25478;42.626;23.320;2023-03-20T04:47:36;93304.94;;;2.47;80.91
39789;BME280;25478;42.626;23.320;2023-03-20T04:50:02;93329.28;;;2.64;80.78
39789;BME280;25478;42.626;23.320;2023-03-20T04:52:29;93338.72;;;2.68;80.32
39789;BME280;25478;42.626;23.320;2023-03-20T04:54:55;93339.72;;;2.76;80.59
39789;BME280;25478;42.626;23.320;2023-03-20T04:57:20;93345.50;;;2.81;80.51
39789;BME280;25478;42.626;23.320;2023-03-20T04:59:46;93351.72;;;2.89;80.33
39789;BME280;25478;42.626;23.320;2023-03-20T05:02:11;93350.13;;;2.97;79.87
39789;BME280;25478;42.626;23.320;2023-03-20T05:04:41;93357.22;;;3.08;79.70
39789;BME280;25478;42.626;23.320;2023-03-20T05:07:07;93353.16;;;3.20;79.75
39789;BME280;25478;42.626;23.320;2023-03-20T05:09:41;93343.88;;;3.31;79.07
39789;BME280;25478;42.626;23.320;2023-03-20T05:12:08;93355.81;;;3.44;78.66
39789;BME280;25478;42.626;23.320;2023-03-20T05:14:36;93346.19;;;3.57;78.33
39789;BME280;25478;42.626;23.320;2023-03-20T05:17:22;93345.91;;;3.71;77.77
39789;BME280;25478;42.626;23.320;2023-03-20T05:20:07;93345.59;;;3.84;77.70
39789;BME280;25478;42.626;23.320;2023-03-20T05:22:56;93352.34;;;3.98;77.34
39789;BME280;25478;42.626;23.320;2023-03-20T05:26:00;93360.91;;;4.10;77.34
39789;BME280;25478;42.626;23.320;2023-03-20T05:28:46;93362.63;;;4.18;76.50
39789;BME280;25478;42.626;23.320;2023-03-20T05:31:24;93358.75;;;4.24;76.41
39789;BME280;25478;42.626;23.320;2023-03-20T05:34:13;93367.00;;;4.39;76.34
39789;BME280;25478;42.626;23.320;2023-03-20T05:36:57;93370.44;;;4.55;76.01
39789;BME280;25478;42.626;23.320;2023-03-20T05:39:45;93365.41;;;4.74;75.68
39789;BME280;25478;42.626;23.320;2023-03-20T05:42:37;93367.97;;;4.99;75.08
39789;BME280;25478;42.626;23.320;2023-03-20T05:45:17;93361.16;;;5.22;74.35
39789;BME280;25478;42.626;23.320;2023-03-20T05:47:46;93366.00;;;5.52;73.29
39789;BME280;25478;42.626;23.320;2023-03-20T05:50:14;93360.25;;;5.74;72.72
39789;BME280;25478;42.626;23.320;2023-03-20T05:53:15;93362.91;;;6.06;71.57
39789;BME280;25478;42.626;23.320;2023-03-20T05:56:07;93371.63;;;6.29;70.86
39789;BME280;25478;42.626;23.320;2023-03-20T05:58:39;93365.22;;;6.42;69.56
39789;BME280;25478;42.626;23.320;2023-03-20T06:01:23;93370.50;;;6.62;69.14
39789;BME280;25478;42.626;23.320;2023-03-20T06:03:54;93371.63;;;6.80;68.35
39789;BME280;25478;42.626;23.320;2023-03-20T06:06:39;93368.72;;;7.01;68.04
39789;BME280;25478;42.626;23.320;2023-03-20T06:09:06;93345.22;;;7.04;66.98
39789;BME280;25478;42.626;23.320;2023-03-20T06:11:32;93366.06;;;7.40;66.79
39789;BME280;25478;42.626;23.320;2023-03-20T06:13:58;93359.31;;;7.58;65.59
39789;BME280;25478;42.626;23.320;2023-03-20T06:16:33;93360.38;;;7.76;64.96
39789;BME280;25478;42.626;23.320;2023-03-20T06:18:58;93364.00;;;7.91;64.43
39789;BME280;25478;42.626;23.320;2023-03-20T06:21:24;93369.47;;;8.05;64.08
39789;BME280;25478;42.626;23.320;2023-03-20T06:23:51;93367.31;;;8.11;63.80
39789;BME280;25478;42.626;23.320;2023-03-20T06:26:20;93370.06;;;8.18;63.16
39789;BME280;25478;42.626;23.320;2023-03-20T06:28:58;93374.59;;;8.21;62.10
39789;BME280;25478;42.626;23.320;2023-03-20T06:31:24;93374.56;;;8.17;62.90
39789;BME280;25478;42.626;23.320;2023-03-20T06:33:50;93372.81;;;8.25;62.94
39789;BME280;25478;42.626;23.320;2023-03-20T06:36:17;93375.81;;;8.27;63.03
39789;BME280;25478;42.626;23.320;2023-03-20T06:38:44;93376.59;;;8.28;62.24
39789;BME280;25478;42.626;23.320;2023-03-20T06:41:13;93371.34;;;8.28;62.95
39789;BME280;25478;42.626;23.320;2023-03-20T06:43:39;93384.59;;;8.35;63.00
39789;BME280;25478;42.626;23.320;2023-03-20T06:46:08;93363.88;;;8.30;62.20
39789;BME280;25478;42.626;23.320;2023-03-20T06:48:36;93377.25;;;8.44;62.70
39789;BME280;25478;42.626;23.320;2023-03-20T06:51:04;93378.03;;;8.48;62.21
39789;BME280;25478;42.626;23.320;2023-03-20T06:53:35;93382.28;;;8.56;61.77
39789;BME280;25478;42.626;23.320;2023-03-20T06:56:07;93373.47;;;8.68;61.93
39789;BME280;25478;42.626;23.320;2023-03-20T06:58:33;93380.75;;;8.82;61.07
39789;BME280;25478;42.626;23.320;2023-03-20T07:00:59;93372.28;;;8.92;60.78
39789;BME280;25478;42.626;23.320;2023-03-20T07:03:24;93366.81;;;9.04;60.40
39789;BME280;25478;42.626;23.320;2023-03-20T07:05:51;93365.97;;;9.26;59.73
39789;BME280;25478;42.626;23.320;2023-03-20T07:08:18;93350.97;;;9.27;59.41
39789;BME280;25478;42.626;23.320;2023-03-20T07:10:43;93359.81;;;9.49;58.38
39789;BME280;25478;42.626;23.320;2023-03-20T07:13:11;93362.22;;;9.61;58.20
39789;BME280;25478;42.626;23.320;2023-03-20T07:15:38;93371.41;;;9.81;56.88
39789;BME280;25478;42.626;23.320;2023-03-20T07:18:06;93367.34;;;9.84;56.87
39789;BME280;25478;42.626;23.320;2023-03-20T07:20:31;93368.94;;;9.96;56.81
39789;BME280;25478;42.626;23.320;2023-03-20T07:22:58;93356.66;;;10.10;55.97
39789;BME280;25478;42.626;23.320;2023-03-20T07:25:25;93360.97;;;10.29;55.49
39789;BME280;25478;42.626;23.320;2023-03-20T07:27:51;93358.41;;;10.36;55.78
39789;BME280;25478;42.626;23.320;2023-03-20T07:30:20;93366.81;;;10.53;55.62
39789;BME280;25478;42.626;23.320;2023-03-20T07:32:46;93365.78;;;10.68;55.00
39789;BME280;25478;42.626;23.320;2023-03-20T07:35:13;93359.06;;;10.78;54.13
39789;BME280;25478;42.626;23.320;2023-03-20T07:37:40;93371.91;;;10.86;53.27
39789;BME280;25478;42.626;23.320;2023-03-20T07:40:07;93360.63;;;10.86;52.90
39789;BME280;25478;42.626;23.320;2023-03-20T07:42:44;93367.78;;;10.89;52.34
39789;BME280;25478;42.626;23.320;2023-03-20T07:45:20;93363.97;;;10.83;52.30
39789;BME280;25478;42.626;23.320;2023-03-20T07:47:45;93375.63;;;10.78;52.67
39789;BME280;25478;42.626;23.320;2023-03-20T07:50:12;93373.00;;;10.82;52.28
39789;BME280;25478;42.626;23.320;2023-03-20T07:52:47;93369.97;;;10.80;52.38
39789;BME280;25478;42.626;23.320;2023-03-20T07:55:14;93372.56;;;10.73;52.47
39789;BME280;25478;42.626;23.320;2023-03-20T07:57:42;93371.81;;;10.76;52.48
39789;BME280;25478;42.626;23.320;2023-03-20T08:00:08;93378.66;;;10.84;52.48
39789;BME280;25478;42.626;23.320;2023-03-20T08:02:37;93379.81;;;10.86;51.76
39789;BME280;25478;42.626;23.320;2023-03-20T08:05:02;93382.44;;;10.86;51.52
39789;BME280;25478;42.626;23.320;2023-03-20T08:07:28;93377.94;;;10.87;51.19
39789;BME280;25478;42.626;23.320;2023-03-20T08:09:54;93370.41;;;10.85;50.95
39789;BME280;25478;42.626;23.320;2023-03-20T08:12:20;93368.53;;;10.89;50.68
39789;BME280;25478;42.626;23.320;2023-03-20T08:14:46;93366.31;;;10.98;50.20
39789;BME280;25478;42.626;23.320;2023-03-20T08:17:11;93369.00;;;11.06;50.14
39789;BME280;25478;42.626;23.320;2023-03-20T08:19:37;93372.78;;;11.12;50.08
39789;BME280;25478;42.626;23.320;2023-03-20T08:22:03;93373.50;;;11.09;50.29
39789;BME280;25478;42.626;23.320;2023-03-20T08:24:28;93369.75;;;11.10;50.28
39789;BME280;25478;42.626;23.320;2023-03-20T08:26:54;93379.19;;;11.14;49.90
39789;BME280;25478;42.626;23.320;2023-03-20T08:29:20;93376.56;;;11.18;50.05
39789;BME280;25478;42.626;23.320;2023-03-20T08:31:46;93369.09;;;11.27;50.05
39789;BME280;25478;42.626;23.320;2023-03-20T08:34:11;93382.69;;;11.43;49.78
39789;BME280;25478;42.626;23.320;2023-03-20T08:36:37;93380.50;;;11.52;49.59
39789;BME280;25478;42.626;23.320;2023-03-20T08:39:04;93374.84;;;11.57;49.51
39789;BME280;25478;42.626;23.320;2023-03-20T08:41:32;93379.78;;;11.66;49.43
39789;BME280;25478;42.626;23.320;2023-03-20T08:43:58;93379.09;;;11.83;48.94
39789;BME280;25478;42.626;23.320;2023-03-20T08:46:23;93369.69;;;11.86;48.42
39789;BME280;25478;42.626;23.320;2023-03-20T08:48:49;93383.28;;;12.02;48.14
39789;BME280;25478;42.626;23.320;2023-03-20T08:51:15;93381.78;;;12.16;48.11
39789;BME280;25478;42.626;23.320;2023-03-20T08:53:40;93380.31;;;12.36;47.88
39789;BME280;25478;42.626;23.320;2023-03-20T08:56:06;93363.72;;;12.32;47.09
39789;BME280;25478;42.626;23.320;2023-03-20T08:58:32;93368.59;;;12.33;47.00
39789;BME280;25478;42.626;23.320;2023-03-20T09:01:04;93353.53;;;12.30;46.71
39789;BME280;25478;42.626;23.320;2023-03-20T09:03:29;93371.63;;;12.50;47.19
39789;BME280;25478;42.626;23.320;2023-03-20T09:05:56;93354.66;;;12.54;46.98
39789;BME280;25478;42.626;23.320;2023-03-20T09:08:21;93364.44;;;12.68;46.89
39789;BME280;25478;42.626;23.320;2023-03-20T09:10:47;93365.19;;;12.76;46.98
39789;BME280;25478;42.626;23.320;2023-03-20T09:13:13;93363.31;;;12.80;46.97
39789;BME280;25478;42.626;23.320;2023-03-20T09:15:39;93363.66;;;12.89;46.59
39789;BME280;25478;42.626;23.320;2023-03-20T09:18:04;93364.00;;;13.02;46.85
39789;BME280;25478;42.626;23.320;2023-03-20T09:20:30;93365.47;;;13.17;46.11
39789;BME280;25478;42.626;23.320;2023-03-20T09:22:56;93356.03;;;13.27;45.76
39789;BME280;25478;42.626;23.320;2023-03-20T09:25:22;93353.75;;;13.32;45.75
39789;BME280;25478;42.626;23.320;2023-03-20T09:27:54;93355.63;;;13.35;45.72
39789;BME280;25478;42.626;23.320;2023-03-20T09:30:20;93352.97;;;13.35;45.64
39789;BME280;25478;42.626;23.320;2023-03-20T09:32:47;93356.72;;;13.45;45.48
39789;BME280;25478;42.626;23.320;2023-03-20T09:35:13;93352.53;;;13.51;45.26
39789;BME280;25478;42.626;23.320;2023-03-20T09:37:39;93348.00;;;13.51;44.88
39789;BME280;25478;42.626;23.320;2023-03-20T09:40:05;93347.28;;;13.47;45.04
39789;BME280;25478;42.626;23.320;2023-03-20T09:48:24;93331.28;;;13.72;45.29
39789;BME280;25478;42.626;23.320;2023-03-20T09:51:00;93322.88;;;13.88;44.84
39789;BME280;25478;42.626;23.320;2023-03-20T09:56:50;93312.44;;;14.19;44.15
39789;BME280;25478;42.626;23.320;2023-03-20T09:59:17;93307.06;;;14.29;43.90
39789;BME280;25478;42.626;23.320;2023-03-20T10:04:14;93298.63;;;14.42;43.58
39789;BME280;25478;42.626;23.320;2023-03-20T10:06:40;93287.25;;;14.48;44.05
39789;BME280;25478;42.626;23.320;2023-03-20T10:09:14;93281.91;;;14.55;43.39
39789;BME280;25478;42.626;23.320;2023-03-20T10:14:26;93284.72;;;14.75;43.36
39789;BME280;25478;42.626;23.320;2023-03-20T10:23:04;93274.06;;;15.13;42.62
39789;BME280;25478;42.626;23.320;2023-03-20T10:25:41;93276.97;;;15.26;42.13
39789;BME280;25478;42.626;23.320;2023-03-20T10:28:12;93270.75;;;15.36;42.15
39789;BME280;25478;42.626;23.320;2023-03-20T10:42:08;93253.16;;;15.49;41.00
39789;BME280;25478;42.626;23.320;2023-03-20T10:44:40;93252.25;;;15.59;40.86
39789;BME280;25478;42.626;23.320;2023-03-20T10:47:11;93252.47;;;15.72;40.98
39789;BME280;25478;42.626;23.320;2023-03-20T10:49:54;93250.44;;;15.83;40.08
39789;BME280;25478;42.626;23.320;2023-03-20T10:52:27;93249.97;;;15.88;40.76
39789;BME280;25478;42.626;23.320;2023-03-20T10:55:05;93240.69;;;16.00;40.28
39789;BME280;25478;42.626;23.320;2023-03-20T10:57:38;93234.34;;;16.17;40.08
39789;BME280;25478;42.626;23.320;2023-03-20T11:00:18;93230.00;;;16.27;39.36
39789;BME280;25478;42.626;23.320;2023-03-20T11:02:46;93232.44;;;16.41;39.03
39789;BME280;25478;42.626;23.320;2023-03-20T11:07:45;93230.78;;;16.47;38.36
39789;BME280;25478;42.626;23.320;2023-03-20T11:10:13;93225.22;;;16.42;38.71
39789;BME280;25478;42.626;23.320;2023-03-20T11:12:46;93216.81;;;16.43;38.44
39789;BME280;25478;42.626;23.320;2023-03-20T11:17:53;93211.88;;;16.65;38.45
39789;BME280;25478;42.626;23.320;2023-03-20T11:20:19;93213.94;;;16.77;38.37
39789;BME280;25478;42.626;23.320;2023-03-20T11:22:46;93213.06;;;16.84;38.43
39789;BME280;25478;42.626;23.320;2023-03-20T11:25:33;93214.84;;;16.91;38.17
39789;BME280;25478;42.626;23.320;2023-03-20T11:30:50;93196.28;;;17.07;38.35
39789;BME280;25478;42.626;23.320;2023-03-20T11:33:21;93195.31;;;17.17;37.70
39789;BME280;25478;42.626;23.320;2023-03-20T11:35:52;93204.22;;;17.27;36.97
39789;BME280;25478;42.626;23.320;2023-03-20T11:38:20;93194.41;;;17.24;36.61
39789;BME280;25478;42.626;23.320;2023-03-20T11:40:47;93194.75;;;17.26;36.76
39789;BME280;25478;42.626;23.320;2023-03-20T11:43:18;93188.53;;;17.32;36.70
39789;BME280;25478;42.626;23.320;2023-03-20T11:45:50;93183.38;;;17.41;36.24
39789;BME280;25478;42.626;23.320;2023-03-20T11:48:23;93175.66;;;17.47;36.59
39789;BME280;25478;42.626;23.320;2023-03-20T11:53:57;93164.34;;;17.59;35.69
39789;BME280;25478;42.626;23.320;2023-03-20T11:56:30;93169.00;;;17.55;35.52
39789;BME280;25478;42.626;23.320;2023-03-20T11:59:06;93162.78;;;17.62;35.48
39789;BME280;25478;42.626;23.320;2023-03-20T12:01:51;93163.78;;;17.68;35.35
39789;BME280;25478;42.626;23.320;2023-03-20T12:04:24;93153.06;;;17.71;34.96
39789;BME280;25478;42.626;23.320;2023-03-20T12:06:56;93145.56;;;17.66;35.11
39789;BME280;25478;42.626;23.320;2023-03-20T12:15:16;93138.13;;;18.07;34.02
39789;BME280;25478;42.626;23.320;2023-03-20T12:20:44;93131.19;;;18.25;34.23
39789;BME280;25478;42.626;23.320;2023-03-20T12:23:23;93135.16;;;18.34;33.87
39789;BME280;25478;42.626;23.320;2023-03-20T12:26:00;93137.13;;;18.46;33.85
39789;BME280;25478;42.626;23.320;2023-03-20T12:34:00;93124.03;;;18.51;32.65
39789;BME280;25478;42.626;23.320;2023-03-20T12:36:31;93130.31;;;18.57;32.76
39789;BME280;25478;42.626;23.320;2023-03-20T12:38:58;93125.97;;;18.64;32.27
39789;BME280;25478;42.626;23.320;2023-03-20T13:01:16;93101.50;;;18.69;31.84
39789;BME280;25478;42.626;23.320;2023-03-20T13:04:31;93093.81;;;18.71;31.83
39789;BME280;25478;42.626;23.320;2023-03-20T13:07:05;93097.22;;;18.71;31.85
39789;BME280;25478;42.626;23.320;2023-03-20T13:10:03;93090.19;;;18.77;31.66
39789;BME280;25478;42.626;23.320;2023-03-20T13:15:52;93064.78;;;18.73;30.91
39789;BME280;25478;42.626;23.320;2023-03-20T13:21:15;93067.38;;;18.76;30.63
39789;BME280;25478;42.626;23.320;2023-03-20T13:23:55;93061.59;;;18.78;30.76
39789;BME280;25478;42.626;23.320;2023-03-20T13:29:18;93060.66;;;18.84;30.76
39789;BME280;25478;42.626;23.320;2023-03-20T13:31:59;93069.84;;;18.83;30.82
39789;BME280;25478;42.626;23.320;2023-03-20T13:39:57;93055.41;;;18.81;31.13
39789;BME280;25478;42.626;23.320;2023-03-20T13:42:28;93041.03;;;18.78;30.42
39789;BME280;25478;42.626;23.320;2023-03-20T13:45:04;93029.19;;;18.67;30.53
39789;BME280;25478;42.626;23.320;2023-03-20T13:47:32;93049.53;;;18.73;30.63
39789;BME280;25478;42.626;23.320;2023-03-20T13:55:54;93027.31;;;18.51;30.36
39789;BME280;25478;42.626;23.320;2023-03-20T13:58:46;93049.50;;;18.61;30.89
39789;BME280;25478;42.626;23.320;2023-03-20T14:01:29;93039.38;;;18.55;31.24
39789;BME280;25478;42.626;23.320;2023-03-20T14:03:59;93010.66;;;18.47;31.06
39789;BME280;25478;42.626;23.320;2023-03-20T14:08:52;93024.25;;;18.65;31.37
39789;BME280;25478;42.626;23.320;2023-03-20T14:14:11;93025.09;;;18.75;30.67
39789;BME280;25478;42.626;23.320;2023-03-20T14:16:39;93013.19;;;18.79;30.42
39789;BME280;25478;42.626;23.320;2023-03-20T14:19:16;93022.25;;;18.82;30.25
39789;BME280;25478;42.626;23.320;2023-03-20T14:21:45;93014.88;;;18.86;30.35
39789;BME280;25478;42.626;23.320;2023-03-20T14:24:14;93010.28;;;18.87;30.36
39789;BME280;25478;42.626;23.320;2023-03-20T14:26:41;93008.81;;;18.86;30.45
39789;BME280;25478;42.626;23.320;2023-03-20T14:31:36;93006.56;;;18.84;30.21
39789;BME280;25478;42.626;23.320;2023-03-20T14:37:23;92998.88;;;18.86;30.50
39789;BME280;25478;42.626;23.320;2023-03-20T14:47:41;93000.81;;;18.86;30.39
39789;BME280;25478;42.626;23.320;2023-03-20T14:52:52;92994.94;;;18.78;30.92
39789;BME280;25478;42.626;23.320;2023-03-20T14:57:46;92975.72;;;18.45;30.91
39789;BME280;25478;42.626;23.320;2023-03-20T15:00:20;92994.25;;;18.48;31.00
39789;BME280;25478;42.626;23.320;2023-03-20T15:02:49;92991.59;;;18.36;31.35
39789;BME280;25478;42.626;23.320;2023-03-20T15:05:41;92992.09;;;18.18;31.33
39789;BME280;25478;42.626;23.320;2023-03-20T15:08:22;92987.66;;;17.98;32.00
39789;BME280;25478;42.626;23.320;2023-03-20T15:10:52;92991.28;;;17.92;32.87
39789;BME280;25478;42.626;23.320;2023-03-20T15:13:19;92998.91;;;17.77;34.08
39789;BME280;25478;42.626;23.320;2023-03-20T15:15:57;92995.50;;;17.60;34.99
39789;BME280;25478;42.626;23.320;2023-03-20T15:18:25;92997.53;;;17.40;35.83
39789;BME280;25478;42.626;23.320;2023-03-20T15:20:52;92985.34;;;17.10;36.40
39789;BME280;25478;42.626;23.320;2023-03-20T15:23:19;92948.28;;;16.70;36.70
39789;BME280;25478;42.626;23.320;2023-03-20T15:25:46;92994.38;;;16.80;36.88
39789;BME280;25478;42.626;23.320;2023-03-20T15:28:18;92984.53;;;16.60;37.44
39789;BME280;25478;42.626;23.320;2023-03-20T15:30:47;92995.16;;;16.44;37.70
39789;BME280;25478;42.626;23.320;2023-03-20T15:33:20;92994.28;;;16.31;37.74
39789;BME280;25478;42.626;23.320;2023-03-20T15:35:49;92999.47;;;16.18;38.18
39789;BME280;25478;42.626;23.320;2023-03-20T15:38:16;92987.59;;;16.07;38.55
39789;BME280;25478;42.626;23.320;2023-03-20T15:40:42;92995.69;;;15.99;38.79
39789;BME280;25478;42.626;23.320;2023-03-20T15:45:39;92994.88;;;15.83;38.99
39789;BME280;25478;42.626;23.320;2023-03-20T15:50:39;92992.56;;;15.65;38.81
39789;BME280;25478;42.626;23.320;2023-03-20T15:53:07;92939.13;;;15.19;39.19
39789;BME280;25478;42.626;23.320;2023-03-20T15:55:36;92992.44;;;15.48;39.17
39789;BME280;25478;42.626;23.320;2023-03-20T15:58:03;92990.66;;;15.42;39.12
39789;BME280;25478;42.626;23.320;2023-03-20T16:00:42;92993.84;;;15.33;39.37
39789;BME280;25478;42.626;23.320;2023-03-20T16:03:27;92967.03;;;15.04;39.63
39789;BME280;25478;42.626;23.320;2023-03-20T16:05:53;93002.84;;;15.16;39.40
39789;BME280;25478;42.626;23.320;2023-03-20T16:08:29;93004.44;;;15.10;39.35